createdAt,value
2022-11-13T00:00:25.630Z,12.46
2022-11-13T00:03:14.019Z,12.33
2022-11-13T00:06:01.496Z,12.49
2022-11-13T00:08:49.277Z,12.60
2022-11-13T00:11:36.269Z,12.51
2022-11-13T00:14:23.403Z,12.52
2022-11-13T00:17:10.452Z,12.60
2022-11-13T00:19:58.955Z,12.60
2022-11-13T00:22:46.606Z,12.67
2022-11-13T00:25:36.643Z,12.57
2022-11-13T00:28:23.904Z,12.52
2022-11-13T00:31:12.373Z,12.60
2022-11-13T00:37:09.469Z,11.81
2022-11-13T00:39:59.651Z,12.35
2022-11-13T00:42:46.781Z,12.20
2022-11-13T00:45:33.896Z,11.98
2022-11-13T00:48:21.578Z,11.87
2022-11-13T00:51:08.934Z,11.92
2022-11-13T00:53:57.274Z,11.74
2022-11-13T00:56:44.750Z,11.78
2022-11-13T00:59:31.712Z,11.89
2022-11-13T01:02:18.659Z,11.95
2022-11-13T01:05:06.335Z,12.00
2022-11-13T01:07:53.422Z,12.26
2022-11-13T01:10:45.578Z,12.23
2022-11-13T01:13:34.600Z,12.26
2022-11-13T01:16:23.683Z,12.35
2022-11-13T01:19:10.719Z,12.34
2022-11-13T01:21:57.707Z,12.35
2022-11-13T01:24:44.730Z,12.30
2022-11-13T01:27:33.546Z,12.25
2022-11-13T01:30:21.040Z,12.38
2022-11-13T01:33:08.124Z,12.33
2022-11-13T01:36:00.647Z,12.19
2022-11-13T01:38:48.302Z,12.33
2022-11-13T01:41:35.974Z,12.08
2022-11-13T01:44:24.533Z,12.10
2022-11-13T01:47:13.013Z,11.99
2022-11-13T01:50:03.926Z,11.97
2022-11-13T01:53:15.246Z,12.15
2022-11-13T01:56:09.787Z,12.15
2022-11-13T01:59:38.071Z,12.13
2022-11-13T02:02:26.521Z,12.24
2022-11-13T02:05:46.918Z,12.44
2022-11-13T02:08:37.425Z,12.26
2022-11-13T02:11:27.904Z,12.26
2022-11-13T02:14:23.332Z,12.19
2022-11-13T02:17:22.551Z,12.26
2022-11-13T02:20:12.492Z,12.40
2022-11-13T02:23:09.594Z,12.33
2022-11-13T02:25:58.492Z,12.46
2022-11-13T02:28:45.764Z,12.42
2022-11-13T02:31:32.885Z,12.49
2022-11-13T02:34:19.708Z,12.46
2022-11-13T02:37:06.639Z,12.36
2022-11-13T02:39:53.420Z,12.22
2022-11-13T02:42:41.808Z,11.90
2022-11-13T02:45:29.214Z,11.92
2022-11-13T02:48:16.749Z,12.02
2022-11-13T02:51:04.288Z,11.73
2022-11-13T02:53:51.846Z,11.54
2022-11-13T02:56:51.296Z,11.54
2022-11-13T02:59:39.685Z,11.41
2022-11-13T03:02:27.141Z,11.27
2022-11-13T03:05:14.341Z,11.66
2022-11-13T03:08:01.463Z,11.72
2022-11-13T03:10:48.363Z,11.64
2022-11-13T03:13:35.331Z,11.68
2022-11-13T03:16:23.715Z,11.57
2022-11-13T03:19:11.214Z,11.58
2022-11-13T03:21:58.423Z,11.36
2022-11-13T03:24:46.039Z,11.35
2022-11-13T03:27:37.140Z,11.39
2022-11-13T03:30:23.837Z,11.21
2022-11-13T03:33:12.270Z,11.48
2022-11-13T03:35:59.958Z,11.53
2022-11-13T03:38:46.946Z,11.55
2022-11-13T03:41:34.177Z,11.60
2022-11-13T03:44:21.381Z,11.66
2022-11-13T03:47:08.486Z,11.39
2022-11-13T03:49:58.160Z,11.40
2022-11-13T03:52:45.148Z,11.29
2022-11-13T03:55:32.288Z,11.27
2022-11-13T03:58:19.356Z,11.38
2022-11-13T04:01:06.372Z,11.55
2022-11-13T04:03:53.420Z,11.74
2022-11-13T04:06:41.612Z,11.74
2022-11-13T04:09:28.748Z,11.56
2022-11-13T04:12:15.665Z,11.64
2022-11-13T04:15:02.626Z,11.67
2022-11-13T04:17:50.443Z,11.56
2022-11-13T04:20:37.784Z,11.59
2022-11-13T04:23:26.051Z,11.61
2022-11-13T04:26:13.270Z,11.59
2022-11-13T04:29:00.036Z,11.56
2022-11-13T04:31:47.326Z,11.54
2022-11-13T04:34:34.046Z,11.35
2022-11-13T04:37:21.011Z,11.23
2022-11-13T04:40:11.389Z,11.34
2022-11-13T04:42:57.550Z,11.27
2022-11-13T04:45:44.755Z,11.41
2022-11-13T04:48:31.980Z,11.42
2022-11-13T04:51:18.846Z,11.13
2022-11-13T04:54:05.798Z,11.25
2022-11-13T04:56:54.047Z,11.27
2022-11-13T04:59:41.444Z,11.20
2022-11-13T05:05:55.569Z,11.09
2022-11-13T05:08:42.546Z,11.04
2022-11-13T05:11:29.443Z,11.29
2022-11-13T05:14:18.185Z,11.37
2022-11-13T05:17:05.465Z,11.37
2022-11-13T05:19:52.919Z,11.53
2022-11-13T05:22:40.115Z,11.69
2022-11-13T05:25:27.430Z,11.75
2022-11-13T05:28:14.615Z,11.85
2022-11-13T05:31:07.523Z,11.72
2022-11-13T05:33:55.163Z,11.41
2022-11-13T05:36:42.208Z,11.15
2022-11-13T05:39:29.429Z,11.02
2022-11-13T05:42:16.253Z,10.99
2022-11-13T05:45:03.298Z,10.96
2022-11-13T05:47:51.633Z,11.14
2022-11-13T05:50:38.305Z,10.66
2022-11-13T05:53:25.629Z,10.44
2022-11-13T05:56:14.455Z,10.72
2022-11-13T05:59:02.951Z,10.69
2022-11-13T06:01:50.461Z,10.81
2022-11-13T06:04:38.905Z,10.96
2022-11-13T06:07:25.568Z,10.97
2022-11-13T06:10:13.339Z,10.88
2022-11-13T06:12:59.938Z,10.98
2022-11-13T06:15:46.928Z,10.85
2022-11-13T06:18:34.689Z,10.91
2022-11-13T06:21:25.387Z,10.78
2022-11-13T06:24:13.781Z,10.63
2022-11-13T06:27:01.022Z,10.65
2022-11-13T06:29:48.388Z,10.68
2022-11-13T06:32:35.282Z,10.60
2022-11-13T06:35:22.397Z,10.63
2022-11-13T06:38:10.482Z,10.63
2022-11-13T06:40:58.379Z,10.65
2022-11-13T06:43:45.844Z,10.63
2022-11-13T06:46:33.205Z,10.89
2022-11-13T06:49:20.458Z,10.66
2022-11-13T06:52:07.583Z,10.36
2022-11-13T06:54:56.020Z,10.69
2022-11-13T06:57:43.439Z,10.56
2022-11-13T07:00:36.181Z,10.71
2022-11-13T07:03:26.663Z,10.25
2022-11-13T07:06:15.234Z,10.31
2022-11-13T07:09:02.311Z,10.06
2022-11-13T07:11:50.831Z,10.03
2022-11-13T07:14:38.605Z,10.00
2022-11-13T07:17:25.779Z,10.01
2022-11-13T07:20:13.091Z,10.07
2022-11-13T07:23:02.348Z,10.11
2022-11-13T07:25:49.508Z,10.38
2022-11-13T07:28:38.080Z,10.52
2022-11-13T07:31:25.272Z,10.41
2022-11-13T07:34:11.989Z,10.39
2022-11-13T07:36:59.154Z,10.17
2022-11-13T07:39:45.968Z,10.32
2022-11-13T07:42:33.121Z,10.00
2022-11-13T07:45:21.483Z,10.14
2022-11-13T07:48:08.308Z,10.25
2022-11-13T07:50:55.695Z,10.37
2022-11-13T07:53:42.954Z,10.55
2022-11-13T07:56:30.108Z,10.56
2022-11-13T07:59:17.186Z,10.58
2022-11-13T08:02:05.445Z,10.71
2022-11-13T08:04:52.621Z,10.68
2022-11-13T08:07:40.015Z,10.60
2022-11-13T08:10:27.665Z,10.45
2022-11-13T08:13:14.816Z,10.66
2022-11-13T08:16:02.079Z,10.83
2022-11-13T08:18:50.812Z,10.93
2022-11-13T08:21:45.203Z,10.96
2022-11-13T08:24:32.895Z,10.92
2022-11-13T08:27:20.092Z,10.93
2022-11-13T08:30:08.552Z,11.12
2022-11-13T08:32:55.858Z,11.50
2022-11-13T08:35:43.947Z,11.63
2022-11-13T08:38:31.484Z,11.90
2022-11-13T08:41:18.702Z,12.06
2022-11-13T08:44:05.943Z,12.34
2022-11-13T08:46:52.868Z,12.56
2022-11-13T08:49:39.605Z,12.72
2022-11-13T08:52:27.847Z,13.25
2022-11-13T08:55:14.712Z,13.33
2022-11-13T08:58:02.444Z,13.73
2022-11-13T09:00:49.909Z,14.50
2022-11-13T09:03:37.478Z,17.37
2022-11-13T09:06:24.519Z,19.83
2022-11-13T09:09:13.384Z,22.55
2022-11-13T09:12:00.536Z,24.93
2022-11-13T09:14:47.547Z,25.84
2022-11-13T09:17:34.600Z,26.40
2022-11-13T09:20:22.928Z,25.14
2022-11-13T09:23:11.046Z,24.52
2022-11-13T09:26:02.783Z,21.74
2022-11-13T09:28:49.691Z,21.75
2022-11-13T09:31:38.372Z,19.89
2022-11-13T09:34:27.355Z,18.74
2022-11-13T09:37:16.121Z,19.05
2022-11-13T09:40:03.358Z,18.77
2022-11-13T09:42:52.256Z,19.09
2022-11-13T09:45:41.551Z,18.08
2022-11-13T09:48:35.165Z,18.23
2022-11-13T09:51:27.231Z,18.24
2022-11-13T09:54:15.687Z,18.44
2022-11-13T09:57:10.596Z,18.69
2022-11-13T10:00:03.482Z,20.14
2022-11-13T10:03:07.546Z,22.69
2022-11-13T10:06:04.651Z,23.84
2022-11-13T10:08:57.547Z,24.13
2022-11-13T10:11:50.840Z,25.15
2022-11-13T10:14:43.005Z,26.68
2022-11-13T10:17:37.022Z,27.79
2022-11-13T10:20:27.116Z,29.17
2022-11-13T10:23:17.787Z,29.96
2022-11-13T10:26:14.982Z,30.25
2022-11-13T10:29:07.398Z,31.80
2022-11-13T10:31:54.917Z,31.77
2022-11-13T10:34:46.128Z,33.23
2022-11-13T10:37:47.164Z,32.75
2022-11-13T10:40:36.583Z,32.89
2022-11-13T10:43:26.795Z,33.40
2022-11-13T10:46:20.714Z,34.02
2022-11-13T10:49:15.091Z,34.42
2022-11-13T10:52:08.515Z,34.19
2022-11-13T10:55:15.627Z,33.95
2022-11-13T10:58:04.263Z,34.71
2022-11-13T11:00:52.733Z,34.58
2022-11-13T11:03:50.157Z,35.98
2022-11-13T11:09:48.863Z,35.22
2022-11-13T11:12:35.983Z,35.59
2022-11-13T11:15:27.585Z,35.56
2022-11-13T11:18:26.312Z,36.23
2022-11-13T11:21:18.139Z,35.35
2022-11-13T11:24:10.796Z,35.59
2022-11-13T11:27:06.470Z,34.23
2022-11-13T11:30:04.958Z,33.51
2022-11-13T11:32:58.840Z,33.95
2022-11-13T11:35:51.133Z,30.25
2022-11-13T11:38:47.342Z,27.48
2022-11-13T11:41:44.057Z,26.44
2022-11-13T11:44:40.636Z,26.99
2022-11-13T11:47:28.905Z,26.14
2022-11-13T11:50:20.250Z,27.84
2022-11-13T11:53:15.927Z,27.05
2022-11-13T11:56:18.116Z,26.73
2022-11-13T11:59:43.803Z,27.30
2022-11-13T12:02:58.123Z,25.06
2022-11-13T12:05:57.929Z,24.56
2022-11-13T12:08:53.707Z,26.89
2022-11-13T12:11:45.226Z,29.68
2022-11-13T12:14:41.908Z,29.68
2022-11-13T12:17:45.801Z,27.47
2022-11-13T12:20:44.191Z,28.32
2022-11-13T12:23:46.263Z,28.08
2022-11-13T12:26:38.931Z,26.98
2022-11-13T12:29:42.117Z,27.03
2022-11-13T12:32:46.983Z,26.71
2022-11-13T12:35:37.074Z,27.52
2022-11-13T12:38:34.903Z,28.92
2022-11-13T12:41:30.347Z,27.13
2022-11-13T12:56:00.355Z,23.50
2022-11-13T12:59:23.893Z,24.19
2022-11-13T13:02:27.963Z,23.73
2022-11-13T13:05:25.361Z,22.40
2022-11-13T13:08:26.972Z,23.07
2022-11-13T13:11:21.479Z,23.33
2022-11-13T13:14:47.256Z,23.19
2022-11-13T13:17:34.223Z,23.50
2022-11-13T13:20:35.008Z,23.56
2022-11-13T13:23:28.709Z,23.25
2022-11-13T13:26:21.012Z,23.00
2022-11-13T13:29:20.667Z,22.17
2022-11-13T13:32:21.130Z,22.46
2022-11-13T13:35:16.004Z,22.58
2022-11-13T13:38:12.022Z,22.60
2022-11-13T13:41:12.434Z,23.09
2022-11-13T13:44:24.449Z,22.61
2022-11-13T13:47:17.822Z,22.71
2022-11-13T13:50:08.915Z,22.78
2022-11-13T13:52:58.069Z,22.10
2022-11-13T13:55:49.923Z,22.00
2022-11-13T13:58:38.974Z,22.03
2022-11-13T14:01:31.973Z,21.55
2022-11-13T14:04:21.445Z,21.31
2022-11-13T14:07:21.832Z,21.47
2022-11-13T14:10:15.400Z,21.48
2022-11-13T14:13:02.456Z,21.64
2022-11-13T14:15:49.596Z,21.43
2022-11-13T14:18:38.135Z,21.27
2022-11-13T14:21:25.735Z,21.36
2022-11-13T14:24:18.383Z,21.21
2022-11-13T14:27:08.065Z,21.01
2022-11-13T14:29:58.186Z,21.02
2022-11-13T14:32:47.315Z,20.97
2022-11-13T14:35:36.783Z,20.94
2022-11-13T14:38:29.747Z,20.93
2022-11-13T14:41:22.870Z,21.10
2022-11-13T14:44:12.787Z,21.25
2022-11-13T14:47:04.780Z,21.23
2022-11-13T14:49:51.765Z,21.00
2022-11-13T14:52:40.281Z,21.13
2022-11-13T14:55:29.840Z,20.96
2022-11-13T14:58:28.004Z,21.07
2022-11-13T15:01:17.700Z,20.92
2022-11-13T15:04:05.330Z,20.82
2022-11-13T15:06:55.824Z,20.72
2022-11-13T15:09:44.821Z,20.59
2022-11-13T15:12:32.206Z,20.60
2022-11-13T15:15:21.751Z,20.59
2022-11-13T15:18:11.285Z,20.59
2022-11-13T15:20:58.252Z,20.63
2022-11-13T15:23:45.307Z,20.47
2022-11-13T15:26:33.924Z,20.48
2022-11-13T15:29:20.804Z,20.33
2022-11-13T15:32:11.308Z,20.40
2022-11-13T15:34:58.353Z,20.40
2022-11-13T15:37:45.690Z,20.54
2022-11-13T15:40:33.059Z,20.58
2022-11-13T15:43:21.348Z,20.72
2022-11-13T15:46:14.816Z,20.65
2022-11-13T15:49:01.862Z,20.49
2022-11-13T15:51:49.021Z,20.34
2022-11-13T15:54:39.706Z,20.24
2022-11-13T15:57:28.243Z,20.04
2022-11-13T16:00:21.445Z,19.99
2022-11-13T16:03:11.829Z,19.95
2022-11-13T16:06:00.450Z,19.73
2022-11-13T16:08:47.611Z,19.82
2022-11-13T16:11:35.916Z,19.72
2022-11-13T16:14:25.578Z,19.63
2022-11-13T16:17:16.694Z,19.65
2022-11-13T16:20:07.743Z,19.48
2022-11-13T16:22:55.136Z,19.20
2022-11-13T16:25:42.917Z,19.11
2022-11-13T16:28:34.153Z,19.16
2022-11-13T16:31:24.996Z,19.08
2022-11-13T16:34:13.285Z,18.92
2022-11-13T16:37:00.370Z,18.98
2022-11-13T16:39:47.846Z,19.13
2022-11-13T16:42:35.016Z,19.06
2022-11-13T16:45:23.589Z,19.01
2022-11-13T16:48:14.182Z,18.91
2022-11-13T16:51:05.122Z,18.97
2022-11-13T16:53:53.245Z,18.96
2022-11-13T16:56:40.539Z,18.88
2022-11-13T16:59:27.435Z,18.82
2022-11-13T17:02:16.836Z,18.59
2022-11-13T17:05:05.461Z,18.55
2022-11-13T17:07:59.080Z,18.46
2022-11-13T17:10:46.016Z,18.38
2022-11-13T17:13:33.045Z,18.49
2022-11-13T17:16:20.367Z,18.58
2022-11-13T17:19:08.872Z,18.50
2022-11-13T17:21:56.293Z,18.49
2022-11-13T17:24:44.583Z,18.56
2022-11-13T17:27:31.733Z,18.55
2022-11-13T17:30:19.133Z,18.53
2022-11-13T17:33:05.944Z,18.31
2022-11-13T17:35:56.414Z,18.43
2022-11-13T17:38:43.579Z,18.25
2022-11-13T17:41:32.363Z,18.19
2022-11-13T17:44:19.922Z,18.04
2022-11-13T17:47:06.793Z,17.92
2022-11-13T17:49:53.757Z,17.88
2022-11-13T17:52:41.644Z,17.91
2022-11-13T17:55:28.779Z,17.93
2022-11-13T17:58:17.443Z,17.93
2022-11-13T18:01:06.390Z,18.02
2022-11-13T18:03:56.978Z,17.83
2022-11-13T18:06:44.068Z,17.74
2022-11-13T18:09:31.532Z,17.96
2022-11-13T18:12:18.402Z,18.08
2022-11-13T18:15:07.537Z,18.10
2022-11-13T18:17:54.732Z,18.16
2022-11-13T18:20:42.409Z,17.89
2022-11-13T18:23:29.605Z,17.68
2022-11-13T18:26:18.279Z,17.55
2022-11-13T18:29:05.744Z,17.45
2022-11-13T18:31:54.312Z,17.61
2022-11-13T18:34:41.468Z,17.65
2022-11-13T18:37:28.274Z,17.68
2022-11-13T18:40:15.342Z,17.89
2022-11-13T18:43:02.461Z,17.99
2022-11-13T18:45:57.640Z,18.09
2022-11-13T18:48:47.540Z,18.11
2022-11-13T18:51:35.733Z,18.04
2022-11-13T18:54:22.872Z,18.06
2022-11-13T18:57:10.113Z,18.01
2022-11-13T18:59:57.133Z,18.18
2022-11-13T19:02:44.089Z,18.23
2022-11-13T19:05:32.588Z,18.07
2022-11-13T19:08:19.438Z,18.17
2022-11-13T19:11:08.436Z,18.21
2022-11-13T19:13:56.007Z,18.10
2022-11-13T19:16:43.718Z,18.20
2022-11-13T19:19:30.980Z,18.11
2022-11-13T19:22:19.844Z,18.06
2022-11-13T19:25:07.935Z,18.04
2022-11-13T19:27:55.983Z,17.87
2022-11-13T19:30:47.510Z,17.96
2022-11-13T19:33:35.023Z,18.09
2022-11-13T19:36:24.855Z,18.05
2022-11-13T19:39:13.733Z,17.98
2022-11-13T19:42:00.468Z,18.01
2022-11-13T19:44:47.541Z,18.08
2022-11-13T19:47:34.542Z,17.99
2022-11-13T19:50:21.518Z,18.06
2022-11-13T19:53:08.652Z,17.95
2022-11-13T19:55:57.196Z,17.92
2022-11-13T19:58:45.376Z,17.87
2022-11-13T20:01:33.280Z,17.87
2022-11-13T20:04:20.414Z,17.76
2022-11-13T20:07:07.438Z,17.72
2022-11-13T20:09:54.425Z,17.76
2022-11-13T20:12:42.994Z,17.70
2022-11-13T20:15:30.078Z,17.67
2022-11-13T20:18:17.179Z,17.65
2022-11-13T20:21:04.869Z,17.63
2022-11-13T20:23:53.119Z,17.84
2022-11-13T20:26:40.028Z,17.89
2022-11-13T20:29:29.038Z,17.96
2022-11-13T20:32:16.391Z,17.80
2022-11-13T20:35:03.343Z,17.85
2022-11-13T20:37:50.473Z,17.89
2022-11-13T20:40:37.464Z,17.79
2022-11-13T20:43:24.525Z,17.80
2022-11-13T20:46:14.629Z,17.78
2022-11-13T20:49:02.426Z,17.80
2022-11-13T20:51:53.434Z,17.76
2022-11-13T20:54:42.784Z,17.67
2022-11-13T20:57:29.896Z,17.77
2022-11-13T21:00:17.514Z,17.83
2022-11-13T21:03:06.028Z,17.86
2022-11-13T21:05:53.124Z,17.84
2022-11-13T21:08:40.839Z,17.73
2022-11-13T21:11:29.224Z,17.60
2022-11-13T21:14:16.825Z,17.61
2022-11-13T21:17:03.909Z,17.64
2022-11-13T21:19:57.425Z,17.64
2022-11-13T21:22:45.128Z,17.57
2022-11-13T21:25:32.543Z,17.38
2022-11-13T21:28:24.071Z,17.47
2022-11-13T21:31:15.384Z,17.45
2022-11-13T21:34:02.474Z,17.54
2022-11-13T21:36:50.890Z,17.75
2022-11-13T21:39:38.606Z,17.71
2022-11-13T21:42:25.766Z,17.72
2022-11-13T21:45:13.143Z,17.61
2022-11-13T21:48:00.141Z,17.60
2022-11-13T21:50:47.197Z,17.67
2022-11-13T21:53:35.732Z,17.75
2022-11-13T21:56:22.512Z,17.75
2022-11-13T21:59:10.173Z,17.78
2022-11-13T22:01:57.275Z,17.82
2022-11-13T22:04:44.245Z,17.88
2022-11-13T22:07:31.695Z,17.85
2022-11-13T22:10:20.517Z,17.93
2022-11-13T22:13:07.676Z,17.70
2022-11-13T22:15:55.756Z,17.62
2022-11-13T22:18:42.898Z,17.52
2022-11-13T22:21:30.674Z,17.19
2022-11-13T22:24:19.677Z,17.08
2022-11-13T22:27:08.061Z,17.23
2022-11-13T22:29:55.246Z,17.07
2022-11-13T22:32:42.222Z,16.89
2022-11-13T22:35:29.058Z,16.86
2022-11-13T22:38:16.822Z,16.76
2022-11-13T22:41:05.261Z,16.92
2022-11-13T22:43:56.200Z,16.86
2022-11-13T22:46:43.336Z,16.80
2022-11-13T22:49:30.868Z,16.74
2022-11-13T22:52:17.975Z,16.87
2022-11-13T22:55:05.155Z,16.59
2022-11-13T22:57:52.355Z,16.54
2022-11-13T23:00:40.768Z,16.84
2022-11-13T23:03:28.302Z,16.59
2022-11-13T23:06:18.305Z,16.51
2022-11-13T23:09:06.172Z,16.54
2022-11-13T23:11:54.031Z,16.36
2022-11-13T23:14:41.103Z,16.60
2022-11-13T23:17:29.464Z,16.53
2022-11-13T23:20:16.820Z,16.55
2022-11-13T23:23:03.826Z,16.56
2022-11-13T23:25:50.711Z,16.49
2022-11-13T23:28:38.386Z,16.59
2022-11-13T23:31:28.951Z,16.41
2022-11-13T23:34:38.453Z,16.51
2022-11-13T23:37:25.920Z,16.45
2022-11-13T23:40:17.428Z,16.57
2022-11-13T23:43:04.399Z,16.58
2022-11-13T23:45:55.799Z,16.55
2022-11-13T23:48:43.049Z,16.47
2022-11-13T23:51:31.821Z,16.62
2022-11-13T23:54:19.027Z,16.67
2022-11-13T23:57:06.142Z,16.74
2022-11-13T23:59:53.523Z,16.75
